Time;durP1;ratioP1;P1;durP2;ratioP2;P2;SDS_P1;SDS_P2;PMS_P1;PMS_P2;Temp;Humidity;BMP_temperature;BMP_pressure;BME280_temperature;BME280_humidity;BME280_pressure;Samples;Min_cycle;Max_cycle;Signal;HPM_P1;HPM_P2
2023/05/22 00:01:36;;;;;;;;;;;;;;;25.53;100.00;101319.59;5054406;28;20029;-55
2023/05/22 00:04:03;;;;;;;28.40;15.63;;;;;;;25.75;100.00;101321.06;5051867;28;19927;-51
2023/05/22 00:06:29;;;;;;;24.83;14.30;;;;;;;25.56;100.00;101320.94;5049389;28;20416;-55
2023/05/22 00:08:54;;;;;;;27.45;13.85;;;;;;;25.55;100.00;101316.56;5052698;28;20105;-57
2023/05/22 00:11:21;;;;;;;31.60;15.63;;;;;;;25.52;100.00;101315.22;5056861;28;20638;-56
2023/05/22 00:13:47;;;;;;;25.93;12.67;;;;;;;25.60;100.00;101311.03;5053265;28;20037;-56
2023/05/22 00:16:13;;;;;;;31.07;15.53;;;;;;;25.59;100.00;101315.69;5056082;28;20545;-57
2023/05/22 00:18:41;;;;;;;25.40;12.75;;;;;;;25.68;100.00;101321.38;5053672;28;20068;-57
2023/05/22 00:21:07;;;;;;;26.70;14.30;;;;;;;25.67;100.00;101321.69;5049575;28;20033;-56
2023/05/22 00:23:33;;;;;;;;;;;;;;;25.31;100.00;101318.06;5050659;28;20063;-53
2023/05/22 00:25:58;;;;;;;35.73;18.43;;;;;;;25.66;100.00;101329.06;5055747;28;19943;-56
2023/05/22 00:28:24;;;;;;;32.42;18.23;;;;;;;25.02;100.00;101318.78;5049856;28;20058;-56
2023/05/22 00:30:51;;;;;;;35.60;18.17;;;;;;;25.11;100.00;101332.69;5033078;28;20032;-57
2023/05/22 00:33:17;;;;;;;33.58;18.50;;;;;;;24.99;100.00;101329.47;5032705;28;20060;-55
2023/05/22 00:35:43;;;;;;;32.37;17.83;;;;;;;25.23;100.00;101329.63;5049798;28;20037;-56
2023/05/22 00:38:08;;;;;;;37.20;17.45;;;;;;;25.20;100.00;101346.59;5031761;28;20076;-56
2023/05/22 00:40:34;;;;;;;32.05;18.42;;;;;;;25.34;100.00;101347.59;5051991;28;20037;-49
2023/05/22 00:43:07;;;;;;;33.65;18.45;;;;;;;24.84;100.00;101349.50;5049584;28;20103;-56
2023/05/22 00:45:32;;;;;;;31.20;17.43;;;;;;;25.12;100.00;101344.44;5051569;28;20053;-52
2023/05/22 00:47:57;;;;;;;31.08;17.98;;;;;;;25.31;100.00;101345.44;5052428;28;20267;-51
2023/05/22 00:50:23;;;;;;;30.92;18.00;;;;;;;25.54;100.00;101340.38;5032429;28;20044;-51
2023/05/22 00:52:49;;;;;;;31.60;19.23;;;;;;;25.60;100.00;101355.69;5032168;28;20060;-57
2023/05/22 00:55:15;;;;;;;39.67;19.52;;;;;;;25.60;100.00;101354.84;5055980;28;20033;-56
2023/05/22 00:57:41;;;;;;;34.17;17.77;;;;;;;25.58;100.00;101340.63;5057822;28;20037;-57
2023/05/22 01:00:12;;;;;;;31.90;18.42;;;;;;;25.59;100.00;101334.06;5055379;28;20037;-54
2023/05/22 01:02:38;;;;;;;35.90;18.30;;;;;;;25.62;100.00;101330.75;5057390;28;20037;-56
2023/05/22 01:05:05;;;;;;;36.10;19.37;;;;;;;25.51;100.00;101331.94;5061459;28;20294;-52
2023/05/22 01:07:36;;;;;;;36.93;19.10;;;;;;;25.13;100.00;101326.94;5055843;28;20358;-54
2023/05/22 01:10:03;;;;;;;36.40;19.40;;;;;;;25.31;100.00;101329.00;5051526;28;20263;-53
2023/05/22 01:12:54;;;;;;;39.90;19.10;;;;;;;25.01;100.00;101330.84;5039625;28;20358;-49
2023/05/22 01:15:30;;;;;;;41.23;19.57;;;;;;;25.09;100.00;101323.94;5057214;28;20299;-54
2023/05/22 01:18:05;;;;;;;37.03;18.85;;;;;;;25.14;100.00;101314.88;5057480;28;20032;-50
2023/05/22 01:20:39;;;;;;;36.20;19.33;;;;;;;24.98;100.00;101312.25;5054577;28;20037;-56
2023/05/22 01:23:47;;;;;;;31.70;18.17;;;;;;;24.80;100.00;101302.78;5061384;28;20091;-52
2023/05/22 01:27:00;;;;;;;37.97;19.70;;;;;;;25.19;100.00;101314.88;5039313;28;20286;-54
2023/05/22 01:29:39;;;;;;;35.27;19.07;;;;;;;25.13;100.00;101308.59;5036579;28;20050;-51
2023/05/22 01:32:13;;;;;;;39.43;20.03;;;;;;;25.12;100.00;101312.44;5042094;28;20273;-53
2023/05/22 01:34:43;;;;;;;33.83;19.23;;;;;;;24.80;100.00;101300.03;5038902;28;20286;-55
2023/05/22 01:37:10;;;;;;;33.00;16.97;;;;;;;24.89;100.00;101302.97;5057917;28;20275;-53
2023/05/22 01:39:36;;;;;;;36.00;19.77;;;;;;;24.94;100.00;101302.97;5043312;28;20357;-55
2023/05/22 01:42:04;;;;;;;39.30;21.07;;;;;;;24.70;100.00;101311.81;5060222;28;20290;-56
2023/05/22 01:44:29;;;;;;;37.57;20.73;;;;;;;24.52;100.00;101315.97;5058321;28;20301;-55
2023/05/22 01:46:59;;;;;;;36.50;18.80;;;;;;;24.54;100.00;101313.75;5042548;28;20307;-56
2023/05/22 01:49:26;;;;;;;38.23;20.63;;;;;;;24.75;100.00;101314.53;5042869;28;20035;-53
2023/05/22 01:51:57;;;;;;;38.20;21.10;;;;;;;24.70;100.00;101314.53;5060038;28;20313;-56
2023/05/22 01:54:26;;;;;;;37.20;19.40;;;;;;;24.71;100.00;101304.41;5059865;28;20278;-54
2023/05/22 01:57:01;;;;;;;40.60;20.90;;;;;;;24.66;100.00;101291.56;5057664;28;20285;-57
2023/05/22 01:59:38;;;;;;;42.87;21.10;;;;;;;24.39;100.00;101289.22;5055491;28;20735;-56
2023/05/22 02:02:06;;;;;;;39.38;22.50;;;;;;;24.59;100.00;101294.63;5058789;28;20305;-55
2023/05/22 02:04:37;;;;;;;37.90;20.37;;;;;;;24.40;100.00;101294.41;5050339;28;20033;-54
2023/05/22 02:07:03;;;;;;;44.13;21.53;;;;;;;24.35;100.00;101294.41;5038736;28;20334;-55
2023/05/22 02:09:30;;;;;;;40.37;21.07;;;;;;;24.22;100.00;101295.81;5036853;28;20286;-56
2023/05/22 02:11:58;;;;;;;47.23;22.43;;;;;;;24.54;100.00;101299.28;5036509;28;20255;-55
2023/05/22 02:14:27;;;;;;;47.80;22.80;;;;;;;24.29;100.00;101290.06;5039300;28;20271;-54
2023/05/22 02:16:53;;;;;;;39.93;21.53;;;;;;;24.39;100.00;101291.97;5033544;28;20267;-58
2023/05/22 02:19:19;;;;;;;39.93;21.97;;;;;;;24.61;100.00;101291.59;5034269;28;20305;-54
2023/05/22 02:21:45;;;;;;;40.23;20.63;;;;;;;24.60;100.00;101298.16;5036366;28;20030;-54
2023/05/22 02:24:11;;;;;;;38.70;22.20;;;;;;;24.31;100.00;101302.34;5036930;28;20346;-55
2023/05/22 02:26:38;;;;;;;43.28;21.15;;;;;;;24.44;100.00;101292.75;5033088;28;20102;-55
2023/05/22 02:29:05;;;;;;;34.97;20.23;;;;;;;24.31;100.00;101285.94;5035345;28;20037;-55
2023/05/22 02:31:30;;;;;;;40.60;21.98;;;;;;;24.27;100.00;101282.16;5035886;28;20342;-56
2023/05/22 02:33:56;;;;;;;44.70;22.33;;;;;;;24.15;100.00;101285.19;5038710;28;20033;-54
2023/05/22 02:36:21;;;;;;;41.78;22.20;;;;;;;24.06;100.00;101281.38;5040634;28;20033;-58
2023/05/22 02:38:47;;;;;;;37.67;21.52;;;;;;;24.14;100.00;101280.81;5038895;28;20049;-55
2023/05/22 02:41:13;;;;;;;37.20;21.75;;;;;;;24.25;100.00;101289.00;5042281;28;20049;-57
2023/05/22 02:43:38;;;;;;;44.10;21.75;;;;;;;24.03;100.00;101276.47;5038641;28;20038;-54
2023/05/22 02:46:04;;;;;;;40.65;21.92;;;;;;;24.24;100.00;101285.44;5035314;28;20048;-52
2023/05/22 02:48:29;;;;;;;38.13;21.75;;;;;;;24.23;100.00;101278.34;5036164;28;20052;-51
2023/05/22 02:50:55;;;;;;;44.08;21.63;;;;;;;23.74;100.00;101291.50;5034256;28;20032;-57
2023/05/22 02:53:20;;;;;;;41.13;21.03;;;;;;;23.86;100.00;101271.25;5035849;28;20101;-56
2023/05/22 02:55:47;;;;;;;38.97;21.77;;;;;;;24.10;100.00;101270.69;5038321;28;20492;-55
2023/05/22 02:58:13;;;;;;;43.28;22.02;;;;;;;24.03;100.00;101271.00;5038350;28;20052;-55
2023/05/22 03:00:39;;;;;;;41.80;22.02;;;;;;;24.04;100.00;101267.19;5034133;28;20030;-52
2023/05/22 03:03:05;;;;;;;;;;;;;;;23.96;100.00;101267.69;5040939;28;20064;-54
2023/05/22 03:05:32;;;;;;;38.60;20.87;;;;;;;24.00;100.00;101260.63;5042991;28;19913;-51
2023/05/22 03:07:58;;;;;;;45.30;21.63;;;;;;;24.01;100.00;101270.44;5042506;28;20311;-56
2023/05/22 03:10:24;;;;;;;41.95;22.05;;;;;;;23.94;100.00;101267.16;5025398;28;20299;-54
2023/05/22 03:12:52;;;;;;;42.45;21.75;;;;;;;23.87;100.00;101276.47;5059359;28;20044;-56
2023/05/22 03:15:19;;;;;;;38.77;20.77;;;;;;;24.06;100.00;101265.00;5041149;28;20029;-56
2023/05/22 03:17:46;;;;;;;39.90;22.30;;;;;;;23.98;100.00;101268.25;5038695;28;20721;-55
2023/05/22 03:20:16;;;;;;;48.90;22.60;;;;;;;24.19;100.00;101264.41;5038026;28;20274;-55
2023/05/22 03:22:44;;;;;;;42.83;22.97;;;;;;;23.92;100.00;101262.78;5045030;28;20258;-54
2023/05/22 03:25:10;;;;;;;40.13;21.77;;;;;;;24.05;100.00;101266.88;5038352;28;20301;-53
2023/05/22 03:27:38;;;;;;;41.28;21.15;;;;;;;23.30;100.00;101262.84;5038216;28;20298;-55
2023/05/22 03:30:05;;;;;;;39.30;21.73;;;;;;;22.85;100.00;101267.06;5035126;28;20045;-55
2023/05/22 03:32:35;;;;;;;42.33;22.57;;;;;;;23.01;100.00;101266.00;5038795;28;20330;-56
2023/05/22 03:35:01;;;;;;;41.57;22.37;;;;;;;22.84;100.00;101263.50;5037866;28;20766;-54
2023/05/22 03:37:27;;;;;;;49.15;23.30;;;;;;;22.99;100.00;101261.94;5040745;28;20290;-54
2023/05/22 03:39:52;;;;;;;47.37;23.33;;;;;;;22.89;100.00;101260.00;5041268;28;20044;-49
2023/05/22 03:42:25;;;;;;;54.87;24.93;;;;;;;22.86;100.00;101264.06;5037045;28;20281;-54
2023/05/22 03:44:51;;;;;;;59.53;26.40;;;;;;;22.30;100.00;101257.28;5035560;28;20278;-51
2023/05/22 03:47:17;;;;;;;;;;;;;;;22.84;100.00;101263.50;5036467;28;20045;-52
2023/05/22 03:49:44;;;;;;;55.20;25.90;;;;;;;22.66;100.00;101256.66;5040761;28;19912;-52
2023/05/22 03:52:10;;;;;;;50.92;24.30;;;;;;;22.43;100.00;101255.16;5037802;28;20089;-51
2023/05/22 03:54:36;;;;;;;53.88;25.40;;;;;;;22.60;100.00;101260.41;5035291;28;20052;-55
2023/05/22 03:57:03;;;;;;;53.67;26.67;;;;;;;22.86;100.00;101263.25;5036060;28;20030;-52
2023/05/22 03:59:28;;;;;;;74.38;27.38;;;;;;;23.00;100.00;101267.09;5061616;28;20330;-52
2023/05/22 04:01:56;;;;;;;63.75;26.58;;;;;;;22.55;100.00;101258.50;5039241;28;20029;-53
2023/05/22 04:04:25;;;;;;;53.23;26.17;;;;;;;23.02;100.00;101261.38;5059360;28;20037;-54
2023/05/22 04:06:51;;;;;;;57.33;25.57;;;;;;;22.87;100.00;101267.63;5043319;28;20270;-54
2023/05/22 04:09:17;;;;;;;52.88;26.08;;;;;;;22.75;100.00;101260.47;5018422;28;20368;-54
2023/05/22 04:11:43;;;;;;;54.85;26.95;;;;;;;22.98;100.00;101261.09;5016277;28;20054;-55
2023/05/22 04:14:08;;;;;;;46.37;26.00;;;;;;;23.44;100.00;101259.53;5017960;28;20046;-52
2023/05/22 04:16:34;;;;;;;60.33;25.85;;;;;;;23.48;100.00;101268.81;5017392;28;20308;-56
2023/05/22 04:19:02;;;;;;;47.40;25.30;;;;;;;23.60;100.00;101269.38;5013350;28;20049;-54
2023/05/22 04:21:33;;;;;;;61.70;26.07;;;;;;;23.37;100.00;101267.19;5015397;28;20046;-51
2023/05/22 04:24:00;;;;;;;50.60;26.97;;;;;;;23.31;100.00;101267.19;5012543;28;20345;-54
2023/05/22 04:26:28;;;;;;;47.97;25.30;;;;;;;23.61;100.00;101276.47;5013413;28;20290;-52
2023/05/22 04:28:54;;;;;;;49.03;26.53;;;;;;;23.52;100.00;101269.91;5015684;28;20303;-58
2023/05/22 04:31:21;;;;;;;52.90;27.27;;;;;;;23.73;100.00;101278.94;5018136;28;20380;-54
2023/05/22 04:33:48;;;;;;;60.37;25.43;;;;;;;23.52;100.00;101278.09;5015727;28;20049;-53
2023/05/22 04:36:14;;;;;;;58.00;32.13;;;;;;;23.52;100.00;101283.56;5021198;28;20256;-53
2023/05/22 04:38:43;;;;;;;67.82;35.80;;;;;;;23.34;100.00;101285.75;5020901;28;20354;-53
2023/05/22 04:41:13;;;;;;;56.53;29.10;;;;;;;23.62;100.00;101278.13;5018369;28;20070;-54
2023/05/22 04:43:39;;;;;;;57.03;29.07;;;;;;;23.01;100.00;101281.56;5021998;28;20274;-56
2023/05/22 04:46:07;;;;;;;52.90;27.13;;;;;;;23.12;100.00;101279.69;5020581;28;20284;-57
2023/05/22 04:48:33;;;;;;;51.90;28.40;;;;;;;23.34;100.00;101285.75;5023019;28;20037;-54
2023/05/22 04:51:01;;;;;;;53.28;29.35;;;;;;;23.08;100.00;101284.84;5018423;28;20287;-51
2023/05/22 04:53:29;;;;;;;58.47;29.77;;;;;;;23.41;100.00;101298.31;5023251;28;20050;-53
2023/05/22 04:55:58;;;;;;;52.10;29.77;;;;;;;23.52;100.00;101297.22;5022681;28;20327;-55
2023/05/22 04:58:26;;;;;;;50.93;27.97;;;;;;;23.41;100.00;101310.06;5017099;28;20291;-52
2023/05/22 05:00:52;;;;;;;54.67;28.03;;;;;;;23.47;100.00;101299.94;5017843;28;20292;-57
2023/05/22 05:03:19;;;;;;;54.00;25.80;;;;;;;23.59;100.00;101300.50;5021561;28;20380;-56
2023/05/22 05:05:44;;;;;;;54.08;27.10;;;;;;;23.24;100.00;101304.78;5017361;28;20276;-51
2023/05/22 05:08:10;;;;;;;47.55;25.98;;;;;;;23.80;100.00;101305.13;5020744;28;20068;-56
2023/05/22 05:10:37;;;;;;;42.00;26.20;;;;;;;23.15;100.00;101296.31;5020435;28;20069;-55
2023/05/22 05:13:03;;;;;;;45.00;25.73;;;;;;;23.21;100.00;101305.34;5022613;28;20327;-54
2023/05/22 05:15:34;;;;;;;49.50;25.13;;;;;;;22.68;100.00;101313.59;5019153;28;20030;-55
2023/05/22 05:18:01;;;;;;;48.10;24.57;;;;;;;23.02;100.00;101313.19;5017926;28;20343;-54
2023/05/22 05:20:26;;;;;;;41.67;22.17;;;;;;;23.08;100.00;101317.56;5022653;28;20291;-56
2023/05/22 05:22:52;;;;;;;;;;;;;;;23.29;100.00;101323.13;5025978;28;20076;-55
2023/05/22 05:25:19;;;;;;;45.03;22.30;;;;;;;23.38;100.00;101326.13;5021934;28;19914;-52
2023/05/22 05:27:45;;;;;;;;;;;;;;;23.38;100.00;101326.13;5024715;28;20033;-53
2023/05/22 05:30:11;;;;;;;40.77;23.80;;;;;;;23.09;100.00;101318.41;5018257;28;19956;-55
2023/05/22 05:33:02;;;;;;;40.43;21.47;;;;;;;23.35;100.00;101322.03;5014915;28;20134;-57
2023/05/22 05:35:52;;;;;;;40.37;23.10;;;;;;;23.73;100.00;101322.63;5017501;28;20306;-56
2023/05/22 05:38:22;;;;;;;41.73;22.37;;;;;;;23.72;100.00;101325.59;5020766;28;20271;-56
2023/05/22 05:40:48;;;;;;;45.97;23.95;;;;;;;23.68;100.00;101321.78;5017913;28;20284;-54
2023/05/22 05:43:14;;;;;;;47.43;24.03;;;;;;;23.92;100.00;101322.06;5022415;28;20048;-56
2023/05/22 05:45:43;;;;;;;36.63;21.03;;;;;;;24.31;100.00;101326.94;5017157;28;20068;-56
2023/05/22 05:48:10;;;;;;;40.65;18.15;;;;;;;24.18;100.00;101330.28;5012416;28;20300;-56
2023/05/22 05:50:38;;;;;;;35.00;19.80;;;;;;;23.71;100.00;101329.44;5014720;28;20045;-53
2023/05/22 05:53:04;;;;;;;37.22;20.77;;;;;;;23.91;100.00;101325.91;5020553;28;20034;-53
2023/05/22 05:55:32;;;;;;;43.93;23.30;;;;;;;23.88;100.00;101321.78;5017099;28;20030;-54
2023/05/22 05:57:58;;;;;;;44.85;23.17;;;;;;;24.34;100.00;101314.66;5021085;28;20030;-54
2023/05/22 06:00:37;;;;;;;45.87;23.27;;;;;;;24.73;100.00;101319.44;5021008;28;20026;-57
2023/05/22 06:03:03;;;;;;;46.63;23.17;;;;;;;24.65;100.00;101314.53;5018341;28;20030;-52
2023/05/22 06:05:44;;;;;;;49.57;25.17;;;;;;;25.04;100.00;101308.38;5020489;28;20040;-55
2023/05/22 06:08:20;;;;;;;47.53;25.03;;;;;;;24.96;100.00;101322.66;5015300;28;20066;-55
2023/05/22 06:10:46;;;;;;;43.80;23.40;;;;;;;25.35;100.00;101330.06;5018946;28;20021;-54
2023/05/22 06:13:15;;;;;;;45.20;24.23;;;;;;;25.68;100.00;101328.78;5016745;28;20045;-56
2023/05/22 06:15:40;;;;;;;53.75;24.92;;;;;;;25.46;100.00;101333.56;5023589;28;20029;-55
2023/05/22 06:18:06;;;;;;;44.72;24.80;;;;;;;25.74;100.00;101344.06;5024166;28;20042;-52
2023/05/22 06:20:31;;;;;;;44.05;23.08;;;;;;;25.79;100.00;101343.22;5020815;28;20057;-51
2023/05/22 06:22:57;;;;;;;42.50;23.87;;;;;;;25.40;100.00;101331.97;5017796;28;20088;-55
2023/05/22 06:25:24;;;;;;;;;;;;;;;25.77;100.00;101340.75;5025082;28;20283;-56
2023/05/22 06:27:51;;;;;;;46.63;23.23;;;;;;;25.92;100.00;101343.38;5013824;28;19925;-54
2023/05/22 06:30:17;;;;;;;45.50;24.55;;;;;;;26.10;100.00;101343.75;5022978;28;20031;-55
2023/05/22 06:32:44;;;;;;;48.20;24.97;;;;;;;26.17;100.00;101341.53;5019927;28;20034;-55
2023/05/22 06:35:10;;;;;;;43.55;22.42;;;;;;;26.14;100.00;101344.81;5021328;28;20505;-55
2023/05/22 06:37:37;;;;;;;46.10;24.07;;;;;;;26.25;100.00;101347.47;5017238;28;20034;-56
2023/05/22 06:40:05;;;;;;;43.70;24.00;;;;;;;26.31;100.00;101340.84;5017871;28;20037;-51
2023/05/22 06:42:52;;;;;;;50.53;24.03;;;;;;;26.43;100.00;101349.47;5016703;28;20041;-50
2023/05/22 06:45:37;;;;;;;43.57;24.70;;;;;;;25.80;100.00;101359.34;5012329;28;20089;-54
2023/05/22 06:48:22;;;;;;;51.80;24.73;;;;;;;25.83;100.00;101357.97;5012965;28;20061;-54
2023/05/22 06:51:03;;;;;;;44.03;23.90;;;;;;;26.26;100.00;101360.06;5019150;28;21423;-57
2023/05/22 06:53:29;;;;;;;42.05;21.15;;;;;;;26.25;100.00;101353.78;5022489;28;20101;-54
2023/05/22 06:55:55;;;;;;;44.83;24.08;;;;;;;25.85;100.00;101356.59;5018060;28;20069;-55
2023/05/22 06:58:31;;;;;;;49.05;24.95;;;;;;;25.27;100.00;101351.78;5016039;28;20057;-54
2023/05/22 07:00:59;;;;;;;42.33;23.20;;;;;;;25.34;100.00;101347.59;5017049;28;20025;-55
2023/05/22 07:03:32;;;;;;;44.00;24.03;;;;;;;25.08;100.00;101354.31;5020019;28;20026;-54
2023/05/22 07:06:18;;;;;;;50.17;24.93;;;;;;;25.25;100.00;101354.78;5018750;28;20102;-55
2023/05/22 07:08:44;;;;;;;39.33;23.00;;;;;;;25.79;100.00;101363.19;5026151;28;20066;-57
2023/05/22 07:11:10;;;;;;;47.63;24.38;;;;;;;25.65;100.00;101357.56;5034835;28;20049;-58
2023/05/22 07:13:35;;;;;;;40.30;23.88;;;;;;;25.56;100.00;101360.06;5013675;28;20029;-54
2023/05/22 07:16:01;;;;;;;;;;;;;;;25.04;100.00;101349.41;5018620;28;20057;-53
2023/05/22 07:18:27;;;;;;;45.87;23.77;;;;;;;25.79;100.00;101349.50;5018077;28;19910;-57
2023/05/22 07:20:52;;;;;;;44.80;22.33;;;;;;;26.03;100.00;101359.72;5022908;28;20577;-57
2023/05/22 07:23:21;;;;;;;43.57;23.10;;;;;;;26.14;100.00;101364.00;5031772;28;20343;-58
2023/05/22 07:25:48;;;;;;;40.97;22.67;;;;;;;25.86;100.00;101355.50;5015233;28;20106;-54
2023/05/22 07:28:15;;;;;;;41.30;21.70;;;;;;;26.59;100.00;101347.38;5017010;28;20026;-57
2023/05/22 07:31:02;;;;;;;33.75;17.70;;;;;;;26.62;100.00;101362.44;5014940;28;20026;-55
2023/05/22 07:33:29;;;;;;;37.70;20.90;;;;;;;26.10;100.00;101362.94;5013790;28;20034;-52
2023/05/22 07:35:55;;;;;;;39.67;20.13;;;;;;;26.23;100.00;101357.91;5015942;28;20030;-54
2023/05/22 07:38:21;;;;;;;31.45;16.15;;;;;;;26.79;100.00;101366.66;5015437;28;20094;-55
2023/05/22 07:40:54;;;;;;;34.73;21.27;;;;;;;26.66;100.00;101368.16;5011748;28;20094;-55
2023/05/22 07:43:21;;;;;;;38.00;20.40;;;;;;;26.86;100.00;101367.94;5012662;28;20792;-57
2023/05/22 07:45:47;;;;;;;35.35;18.63;;;;;;;26.77;100.00;101362.25;5014081;28;20038;-56
2023/05/22 07:48:15;;;;;;;31.17;18.90;;;;;;;26.74;100.00;101367.50;5013860;28;20065;-52
2023/05/22 07:50:44;;;;;;;36.22;19.48;;;;;;;26.47;100.00;101372.47;5012262;28;20038;-54
2023/05/22 07:53:11;;;;;;;39.47;20.73;;;;;;;26.74;100.00;101382.03;5021256;28;20039;-54
2023/05/22 07:55:38;;;;;;;28.33;16.47;;;;;;;27.04;100.00;101374.56;5015845;28;20026;-57
2023/05/22 07:58:04;;;;;;;36.08;18.02;;;;;;;27.25;100.00;101382.53;5014197;28;20050;-55
2023/05/22 08:00:35;;;;;;;33.33;17.90;;;;;;;27.29;100.00;101380.81;5015622;28;20078;-54
2023/05/22 08:03:01;;;;;;;38.10;20.02;;;;;;;27.45;100.00;101389.66;5021258;28;20121;-54
2023/05/22 08:05:26;;;;;;;39.65;21.10;;;;;;;27.66;100.00;101388.53;5017403;28;20041;-55
2023/05/22 08:07:52;;;;;;;40.28;21.83;;;;;;;27.21;100.00;101384.22;5035608;28;20129;-52
2023/05/22 08:10:18;;;;;;;42.20;20.02;;;;;;;27.68;100.00;101391.81;5059675;28;20041;-54
2023/05/22 08:12:43;;;;;;;41.45;21.65;;;;;;;27.98;100.00;101403.44;5061580;28;20112;-56
2023/05/22 08:15:10;;;;;;;46.20;21.60;;;;;;;27.40;100.00;101405.38;5062466;28;20045;-57
2023/05/22 08:17:35;;;;;;;;;;;;;;;27.07;100.00;101400.59;5062840;28;20033;-52
2023/05/22 08:20:01;;;;;;;38.77;22.10;;;;;;;26.98;100.00;101397.69;5057108;28;19913;-54
2023/05/22 08:22:29;;;;;;;48.97;24.75;;;;;;;26.88;100.00;101401.41;5060257;28;20029;-52
2023/05/22 08:24:55;;;;;;;47.70;24.43;;;;;;;27.49;100.00;101400.88;5057351;28;20048;-55
2023/05/22 08:27:21;;;;;;;47.80;24.48;;;;;;;27.22;100.00;101407.00;5057673;28;20083;-54
2023/05/22 08:29:46;;;;;;;47.92;25.33;;;;;;;27.36;100.00;101402.44;5056445;28;20041;-56
2023/05/22 08:32:12;;;;;;;52.38;24.23;;;;;;;27.31;100.00;101406.06;5056116;28;20086;-56
2023/05/22 08:34:39;;;;;;;42.85;23.75;;;;;;;28.11;100.00;101405.41;5061003;28;20060;-55
2023/05/22 08:37:05;;;;;;;44.43;23.80;;;;;;;28.26;100.00;101400.78;5057652;28;20033;-55
2023/05/22 08:39:31;;;;;;;51.13;24.50;;;;;;;28.32;100.00;101399.56;5056317;28;20037;-54
2023/05/22 08:41:58;;;;;;;46.80;25.40;;;;;;;28.02;100.00;101407.22;5059542;28;20083;-51
2023/05/22 08:44:24;;;;;;;51.90;25.23;;;;;;;28.38;100.00;101406.63;5058247;28;20044;-55
2023/05/22 08:46:55;;;;;;;48.67;24.45;;;;;;;28.69;100.00;101406.03;5063028;28;20037;-57
2023/05/22 08:49:21;;;;;;;48.63;25.23;;;;;;;28.22;100.00;101403.31;5057085;28;20052;-56
2023/05/22 08:51:50;;;;;;;49.67;25.60;;;;;;;28.09;100.00;101395.84;5058397;28;20014;-54
2023/05/22 08:54:20;;;;;;;49.87;25.23;;;;;;;28.16;100.00;101407.28;5060784;28;20036;-56
2023/05/22 08:56:48;;;;;;;47.83;23.67;;;;;;;28.56;100.00;101398.56;5061535;28;20029;-53
2023/05/22 08:59:14;;;;;;;47.60;24.30;;;;;;;28.96;99.79;101401.66;5062084;28;20057;-56
2023/05/22 09:01:40;;;;;;;42.23;22.77;;;;;;;28.89;98.89;101396.56;5057227;28;20101;-54
2023/05/22 09:04:05;;;;;;;45.92;24.38;;;;;;;28.18;100.00;101389.38;5063056;28;20040;-55
2023/05/22 09:06:31;;;;;;;50.38;25.25;;;;;;;27.81;100.00;101382.81;5054835;28;20105;-55
2023/05/22 09:08:58;;;;;;;39.35;19.27;;;;;;;28.66;100.00;101392.88;5054447;28;20049;-56
2023/05/22 09:11:25;;;;;;;41.13;24.00;;;;;;;29.10;98.65;101395.34;5060925;28;20013;-57
2023/05/22 09:13:51;;;;;;;47.20;24.70;;;;;;;28.07;100.00;101398.88;5056539;28;20033;-57
2023/05/22 09:16:17;;;;;;;44.53;23.50;;;;;;;28.35;100.00;101396.22;5060008;28;20101;-55
2023/05/22 09:18:43;;;;;;;48.53;24.60;;;;;;;27.94;100.00;101391.41;5055749;28;20037;-51
2023/05/22 09:21:13;;;;;;;48.20;25.45;;;;;;;28.53;100.00;101389.00;5053570;28;20038;-49
2023/05/22 09:23:39;;;;;;;38.53;21.60;;;;;;;28.50;100.00;101391.53;5063161;28;20044;-52
2023/05/22 09:26:04;;;;;;;45.28;25.40;;;;;;;29.07;99.55;101385.75;5065055;28;20088;-55
2023/05/22 09:28:36;;;;;;;;;;;;;;;29.47;95.12;101376.88;5055694;28;20056;-50
2023/05/22 09:31:02;;;;;;;40.10;21.53;;;;;;;29.97;92.01;101386.97;5063288;28;19936;-57
2023/05/22 09:33:28;;;;;;;;;;;;;;;30.61;88.59;101387.81;5060019;28;20057;-51
2023/05/22 09:35:53;;;;;;;36.73;21.10;;;;;;;30.78;88.31;101394.53;5055466;28;19984;-51
2023/05/22 09:38:21;;;;;;;;;;;;;;;32.05;80.14;101390.03;5055307;28;20037;-51
2023/05/22 09:40:52;;;;;;;35.23;18.87;;;;;;;32.72;76.61;101395.19;5059378;28;19948;-52
2023/05/22 09:43:18;;;;;;;37.95;19.75;;;;;;;33.23;71.85;101400.75;5057202;28;20100;-55
2023/05/22 09:45:43;;;;;;;38.15;21.08;;;;;;;32.41;73.76;101401.81;5060163;28;20048;-53
2023/05/22 09:48:09;;;;;;;33.50;19.75;;;;;;;33.20;71.55;101398.63;5059139;28;20052;-56
2023/05/22 09:50:35;;;;;;;37.58;19.58;;;;;;;33.90;68.48;101402.78;5058041;28;20044;-55
2023/05/22 09:53:02;;;;;;;35.35;19.73;;;;;;;34.32;65.46;101385.19;5060768;28;20054;-54
2023/05/22 09:55:30;;;;;;;30.95;18.08;;;;;;;34.98;63.84;101394.41;5057884;28;20092;-54
2023/05/22 09:57:56;;;;;;;31.52;18.98;;;;;;;35.50;61.55;101399.50;5055562;28;20033;-56
2023/05/22 10:00:23;;;;;;;32.92;18.75;;;;;;;35.17;62.56;101396.59;5056919;28;20026;-58
2023/05/22 10:02:57;;;;;;;34.60;18.50;;;;;;;35.72;60.51;101398.16;5059345;28;20032;-55
2023/05/22 10:05:28;;;;;;;30.00;18.38;;;;;;;36.42;58.22;101396.00;5055174;28;20052;-54
2023/05/22 10:07:58;;;;;;;30.75;18.42;;;;;;;35.14;59.64;101397.31;5054350;28;20079;-52
2023/05/22 10:10:24;;;;;;;29.45;17.63;;;;;;;35.89;57.70;101391.47;5055980;28;20064;-53
2023/05/22 10:12:52;;;;;;;27.17;17.65;;;;;;;36.88;55.71;101390.72;5059478;28;20033;-57
2023/05/22 10:15:18;;;;;;;26.92;17.13;;;;;;;36.69;54.83;101393.47;5056758;28;20045;-54
2023/05/22 10:17:43;;;;;;;30.10;16.17;;;;;;;36.68;56.09;101397.41;5060165;28;20074;-56
2023/05/22 10:20:10;;;;;;;26.65;16.45;;;;;;;37.14;53.69;101399.66;5057135;28;20037;-54
2023/05/22 10:22:37;;;;;;;28.67;17.00;;;;;;;36.80;54.17;101388.97;5061394;28;20108;-56
2023/05/22 10:25:03;;;;;;;25.70;16.17;;;;;;;37.50;52.95;101391.25;5058975;28;20064;-56
2023/05/22 10:27:30;;;;;;;28.73;17.88;;;;;;;37.15;51.50;101390.13;5060771;28;20029;-55
2023/05/22 10:30:09;;;;;;;34.05;21.30;;;;;;;36.75;52.81;101386.44;5058985;28;20045;-56
2023/05/22 10:32:45;;;;;;;24.83;15.32;;;;;;;36.84;53.45;101383.44;5034025;28;20029;-60
2023/05/22 10:35:19;;;;;;;28.13;17.10;;;;;;;36.81;51.95;101386.97;5038565;28;20059;-57
2023/05/22 10:37:52;;;;;;;26.02;16.50;;;;;;;37.73;51.40;101382.91;5057592;28;20048;-59
2023/05/22 10:40:31;;;;;;;26.45;16.92;;;;;;;38.14;48.62;101380.47;5054202;28;20036;-54
2023/05/22 10:43:00;;;;;;;25.55;17.50;;;;;;;37.80;48.87;101387.81;5051012;28;20030;-58
2023/05/22 10:45:27;;;;;;;33.70;18.52;;;;;;;36.73;51.09;101388.78;5057491;28;20048;-53
2023/05/22 10:48:05;;;;;;;24.58;16.02;;;;;;;38.76;48.67;101380.63;5054087;28;20037;-59
2023/05/22 10:50:30;;;;;;;28.45;15.82;;;;;;;40.38;45.33;101376.00;5061417;28;20137;-57
2023/05/22 10:53:19;;;;;;;25.65;16.80;;;;;;;39.17;44.96;101377.19;5053683;28;20056;-55
2023/05/22 10:55:48;;;;;;;23.98;15.15;;;;;;;38.82;46.00;101379.09;5058186;28;20025;-56
2023/05/22 10:58:16;;;;;;;28.73;15.60;;;;;;;37.28;48.69;101377.63;5054998;28;20039;-56
2023/05/22 11:00:43;;;;;;;22.58;15.05;;;;;;;38.19;48.11;101373.78;5058573;28;20044;-57
2023/05/22 11:03:08;;;;;;;22.70;15.82;;;;;;;39.37;45.77;101377.81;5059954;28;20193;-55
2023/05/22 11:05:35;;;;;;;22.40;15.45;;;;;;;39.13;45.42;101383.53;5057380;28;20092;-58
2023/05/22 11:08:08;;;;;;;30.85;17.15;;;;;;;38.36;47.41;101385.56;5052714;28;20119;-53
2023/05/22 11:10:55;;;;;;;27.38;16.00;;;;;;;39.26;46.30;101378.50;5057956;28;20025;-50
2023/05/22 11:13:25;;;;;;;27.15;17.75;;;;;;;39.46;45.01;101383.94;5054235;28;20109;-58